Long Island, KS (67647)

4:27 PM CDT on April 29, 2017 (GMT -0500)
MKPHG | | Change Station

Elev 1905 ft 39.74 °N, 99.32 °W | Updated 2 minutes ago

Rain
Rain
41.0 °F
Feels Like 31 °F
N
24.0
Wind Variable Wind from North
Gusts 38.0 mph

Today
High -- | Low -- °F
--% Chance of Precip.
Yesterday
High -- | Low -- °F
Precip. -- in
Pressure 30.00 in
Visibility 10.0 miles
Clouds Overcast 4000 ft
Windchill 31 °F
Dew Point 37 °F
Humidity 86%
Rainfall 0.32 in
Snow Depth Not available.
6:40 AM 8:31 PM
Waxing Crescent, 16% visible
METAR KHDE 292115Z AUTO 02027G32KT 10SM OVC040 06/00 A3000 RMK AO2 T00610000
Pressure 30.00 in
Visibility 10.0 miles
Clouds Overcast 4000 ft
Windchill 31 °F
Dew Point 37 °F
Humidity 86%
Rainfall 0.32 in
Snow Depth Not available.
6:40 AM 8:31 PM
Waxing Crescent, 16% visible
METAR KHDE 292115Z AUTO 02027G32KT 10SM OVC040 06/00 A3000 RMK AO2 T00610000

Get Severe Weather Alerts

Thanks for signing up!

Be on the lookout for a verification email in your inbox.

You'll start receiving the daily forecast at 8 AM.

×

10-Day Weather Forecast

Almanac

Astronomy

Apr. 29, 2017 Rise Set
Actual Time
Civil Twilight
Nautical Twilight
Astronomical Twilight
Moon
Length of Visible Light
Length of Day
Tomorrow will be .
, % of the Moon is Illuminated

Today's Extremes

State Highs State Lows

Community

WunderPhotos

WunderBlog® & News

Nearby

Air Quality

  Air Quality AQ Index Pollutant
Not available.

Snow Depth

Station Depth Elevation

Earthquake Activity

City Distance Mag. Time & Date
Minimum magnitude displayed is 2.5.

Coastal Water Temperatures

Place Temperature

Stations

Nearby Weather Stations

Station Location Temp. Windchill Dew Point Humidity Wind Precip. Elev Updated Type
                   

Watches & Warnings

There are currently no watches in effect.